Alyeska Resort
Max's Hourly Weather Roundup
ALYESKA_MAX 12/20/2014
Click Here for Graph

        DATE  TIME   Air  Wind  Wind  Wind  BATT   Rel
                    Temp   Spd   Dir  Gust  Volt  Hum%
                      F   MPH   AVG   MPH   AVG   AVG

  12/20/2014 12:00    30    11          15 12.81    55
  12/20/2014 11:00    30     5   138    13 12.62    57
  12/20/2014 10:00    30     1   139     3 12.59    60
  12/20/2014 09:00    30     4   292     8 12.60    59
  12/20/2014 08:00    31     8   126    14 12.60    56
  12/20/2014 07:00    32    12    18    18 12.61    55
  12/20/2014 06:00    31    12    65    19 12.62    59
  12/20/2014 05:00    32     7    59    15 12.63    58
  12/20/2014 04:00    32    15    27    22 12.64    58
  12/20/2014 03:00    32    12    17    20 12.65    59
  12/20/2014 02:00    32    13    59    20 12.66    61
  12/20/2014 01:00    31    14    89    27 12.68    65
  12/19/2014 24:00    30     9   187    18 12.69    71
  12/19/2014 23:00    30     9    65    17 12.71    74
  12/19/2014 22:00    30     7    97    23 12.73    78
  12/19/2014 21:00    30     7    80    18 12.75    83
  12/19/2014 20:00    29    12    56    23 12.78    91
  12/19/2014 19:00    29     9    50    19 12.81    92
  12/19/2014 18:00    29    11    51    22 12.84    88
  12/19/2014 17:00    29     7    92    20 12.88    93
  12/19/2014 16:00    29     7    77    23 12.95    92
  12/19/2014 15:00    30    12    89    24 13.13    88
  12/19/2014 14:00    29     6   157    18 13.41    93
  12/19/2014 13:00    30     4   183    16 13.25    92


Click Here for Graph